sensor_id;sensor_type;location;lat;lon;timestamp;P1;durP1;ratioP1;P2;durP2;ratioP2
38425;SDS011;24210;51.460;6.148;2023-02-28T00:00:51;5.43;;;4.27;;
38425;SDS011;24210;51.460;6.148;2023-02-28T00:03:16;5.33;;;4.83;;
38425;SDS011;24210;51.460;6.148;2023-02-28T00:05:41;7.57;;;4.40;;
38425;SDS011;24210;51.460;6.148;2023-02-28T00:08:07;8.07;;;3.97;;
38425;SDS011;24210;51.460;6.148;2023-02-28T00:10:32;5.47;;;4.20;;
38425;SDS011;24210;51.460;6.148;2023-02-28T00:13:02;4.23;;;3.80;;
38425;SDS011;24210;51.460;6.148;2023-02-28T00:15:28;6.45;;;4.00;;
38425;SDS011;24210;51.460;6.148;2023-02-28T00:17:53;4.77;;;3.27;;
38425;SDS011;24210;51.460;6.148;2023-02-28T00:20:19;5.50;;;3.80;;
38425;SDS011;24210;51.460;6.148;2023-02-28T00:22:45;6.13;;;3.47;;
38425;SDS011;24210;51.460;6.148;2023-02-28T00:25:11;4.65;;;3.63;;
38425;SDS011;24210;51.460;6.148;2023-02-28T00:27:37;4.75;;;4.07;;
38425;SDS011;24210;51.460;6.148;2023-02-28T00:30:03;6.13;;;4.03;;
38425;SDS011;24210;51.460;6.148;2023-02-28T00:32:28;6.63;;;3.60;;
38425;SDS011;24210;51.460;6.148;2023-02-28T00:34:54;6.40;;;3.80;;
38425;SDS011;24210;51.460;6.148;2023-02-28T00:37:20;6.97;;;3.77;;
38425;SDS011;24210;51.460;6.148;2023-02-28T00:39:45;6.60;;;2.90;;
38425;SDS011;24210;51.460;6.148;2023-02-28T00:42:10;3.97;;;3.30;;
38425;SDS011;24210;51.460;6.148;2023-02-28T00:44:35;5.00;;;4.10;;
38425;SDS011;24210;51.460;6.148;2023-02-28T00:47:00;5.53;;;3.43;;
38425;SDS011;24210;51.460;6.148;2023-02-28T00:49:26;6.33;;;3.23;;
38425;SDS011;24210;51.460;6.148;2023-02-28T00:51:51;5.47;;;3.80;;
38425;SDS011;24210;51.460;6.148;2023-02-28T00:54:17;3.63;;;3.30;;
38425;SDS011;24210;51.460;6.148;2023-02-28T00:56:42;4.90;;;3.00;;
38425;SDS011;24210;51.460;6.148;2023-02-28T00:59:07;7.90;;;4.57;;
38425;SDS011;24210;51.460;6.148;2023-02-28T01:01:33;4.73;;;4.13;;
38425;SDS011;24210;51.460;6.148;2023-02-28T01:03:58;5.03;;;3.53;;
38425;SDS011;24210;51.460;6.148;2023-02-28T01:06:23;4.07;;;3.40;;
38425;SDS011;24210;51.460;6.148;2023-02-28T01:08:49;5.03;;;3.67;;
38425;SDS011;24210;51.460;6.148;2023-02-28T01:11:15;5.00;;;3.90;;
38425;SDS011;24210;51.460;6.148;2023-02-28T01:13:41;6.38;;;3.85;;
38425;SDS011;24210;51.460;6.148;2023-02-28T01:16:06;6.50;;;3.57;;
38425;SDS011;24210;51.460;6.148;2023-02-28T01:18:31;8.33;;;3.97;;
38425;SDS011;24210;51.460;6.148;2023-02-28T01:20:57;6.37;;;4.07;;
38425;SDS011;24210;51.460;6.148;2023-02-28T01:23:22;5.87;;;3.90;;
38425;SDS011;24210;51.460;6.148;2023-02-28T01:25:48;5.05;;;3.70;;
38425;SDS011;24210;51.460;6.148;2023-02-28T01:28:14;5.90;;;3.40;;
38425;SDS011;24210;51.460;6.148;2023-02-28T01:30:39;5.93;;;3.87;;
38425;SDS011;24210;51.460;6.148;2023-02-28T01:33:04;6.70;;;4.20;;
38425;SDS011;24210;51.460;6.148;2023-02-28T01:35:32;7.33;;;4.63;;
38425;SDS011;24210;51.460;6.148;2023-02-28T01:37:57;7.68;;;4.68;;
38425;SDS011;24210;51.460;6.148;2023-02-28T01:40:22;8.97;;;4.23;;
38425;SDS011;24210;51.460;6.148;2023-02-28T01:42:47;6.93;;;4.60;;
38425;SDS011;24210;51.460;6.148;2023-02-28T01:45:23;6.67;;;3.73;;
38425;SDS011;24210;51.460;6.148;2023-02-28T01:47:50;7.30;;;4.07;;
38425;SDS011;24210;51.460;6.148;2023-02-28T01:50:22;5.70;;;3.72;;
38425;SDS011;24210;51.460;6.148;2023-02-28T01:52:48;8.63;;;5.07;;
38425;SDS011;24210;51.460;6.148;2023-02-28T01:55:14;8.93;;;4.82;;
38425;SDS011;24210;51.460;6.148;2023-02-28T01:57:45;5.00;;;3.65;;
38425;SDS011;24210;51.460;6.148;2023-02-28T02:00:12;6.75;;;4.15;;
38425;SDS011;24210;51.460;6.148;2023-02-28T02:02:40;6.32;;;4.20;;
38425;SDS011;24210;51.460;6.148;2023-02-28T02:05:08;7.75;;;4.05;;
38425;SDS011;24210;51.460;6.148;2023-02-28T02:07:34;7.72;;;3.97;;
38425;SDS011;24210;51.460;6.148;2023-02-28T02:10:05;6.95;;;3.80;;
38425;SDS011;24210;51.460;6.148;2023-02-28T02:15:16;5.60;;;3.55;;
38425;SDS011;24210;51.460;6.148;2023-02-28T02:17:43;10.90;;;4.32;;
38425;SDS011;24210;51.460;6.148;2023-02-28T02:35:28;4.67;;;4.13;;
38425;SDS011;24210;51.460;6.148;2023-02-28T02:38:17;9.27;;;4.50;;
38425;SDS011;24210;51.460;6.148;2023-02-28T02:40:48;6.13;;;4.60;;
38425;SDS011;24210;51.460;6.148;2023-02-28T02:48:13;5.53;;;4.15;;
38425;SDS011;24210;51.460;6.148;2023-02-28T02:50:44;4.88;;;3.75;;
38425;SDS011;24210;51.460;6.148;2023-02-28T02:53:10;8.25;;;4.03;;
38425;SDS011;24210;51.460;6.148;2023-02-28T02:55:37;6.00;;;4.07;;
38425;SDS011;24210;51.460;6.148;2023-02-28T02:58:04;8.35;;;4.07;;
38425;SDS011;24210;51.460;6.148;2023-02-28T03:02:55;8.77;;;3.77;;
38425;SDS011;24210;51.460;6.148;2023-02-28T03:05:23;7.43;;;3.27;;
38425;SDS011;24210;51.460;6.148;2023-02-28T03:07:49;6.40;;;3.80;;
38425;SDS011;24210;51.460;6.148;2023-02-28T03:10:28;5.30;;;3.50;;
38425;SDS011;24210;51.460;6.148;2023-02-28T03:12:58;6.45;;;4.13;;
38425;SDS011;24210;51.460;6.148;2023-02-28T03:15:27;6.93;;;4.50;;
38425;SDS011;24210;51.460;6.148;2023-02-28T03:18:08;5.80;;;3.85;;
38425;SDS011;24210;51.460;6.148;2023-02-28T03:23:17;5.28;;;3.50;;
38425;SDS011;24210;51.460;6.148;2023-02-28T03:25:52;7.70;;;4.28;;
38425;SDS011;24210;51.460;6.148;2023-02-28T03:31:03;4.25;;;3.85;;
38425;SDS011;24210;51.460;6.148;2023-02-28T03:33:38;6.22;;;3.75;;
38425;SDS011;24210;51.460;6.148;2023-02-28T03:36:07;6.93;;;3.85;;
38425;SDS011;24210;51.460;6.148;2023-02-28T03:41:08;6.22;;;3.90;;
38425;SDS011;24210;51.460;6.148;2023-02-28T03:43:35;6.70;;;4.30;;
38425;SDS011;24210;51.460;6.148;2023-02-28T03:46:04;8.88;;;4.60;;
38425;SDS011;24210;51.460;6.148;2023-02-28T03:48:34;6.05;;;4.20;;
38425;SDS011;24210;51.460;6.148;2023-02-28T03:51:02;6.30;;;4.10;;
38425;SDS011;24210;51.460;6.148;2023-02-28T03:53:34;5.38;;;4.22;;
38425;SDS011;24210;51.460;6.148;2023-02-28T03:56:11;5.78;;;4.13;;
38425;SDS011;24210;51.460;6.148;2023-02-28T04:01:36;5.18;;;3.75;;
38425;SDS011;24210;51.460;6.148;2023-02-28T04:04:03;6.97;;;4.10;;
38425;SDS011;24210;51.460;6.148;2023-02-28T04:06:29;5.40;;;3.77;;
38425;SDS011;24210;51.460;6.148;2023-02-28T04:08:55;6.35;;;3.70;;
38425;SDS011;24210;51.460;6.148;2023-02-28T04:13:51;4.43;;;3.65;;
38425;SDS011;24210;51.460;6.148;2023-02-28T04:16:17;10.37;;;3.73;;
38425;SDS011;24210;51.460;6.148;2023-02-28T04:18:42;9.03;;;6.17;;
38425;SDS011;24210;51.460;6.148;2023-02-28T04:21:10;3.65;;;3.35;;
38425;SDS011;24210;51.460;6.148;2023-02-28T04:23:35;6.07;;;4.03;;
38425;SDS011;24210;51.460;6.148;2023-02-28T04:26:01;4.33;;;3.50;;
38425;SDS011;24210;51.460;6.148;2023-02-28T04:28:26;6.50;;;3.63;;
38425;SDS011;24210;51.460;6.148;2023-02-28T04:30:57;7.57;;;4.87;;
38425;SDS011;24210;51.460;6.148;2023-02-28T04:33:23;5.15;;;3.97;;
38425;SDS011;24210;51.460;6.148;2023-02-28T04:35:57;8.07;;;4.27;;
38425;SDS011;24210;51.460;6.148;2023-02-28T04:38:22;5.95;;;3.70;;
38425;SDS011;24210;51.460;6.148;2023-02-28T04:40:47;7.60;;;3.97;;
38425;SDS011;24210;51.460;6.148;2023-02-28T04:43:13;4.53;;;3.67;;
38425;SDS011;24210;51.460;6.148;2023-02-28T04:45:38;6.23;;;3.90;;
38425;SDS011;24210;51.460;6.148;2023-02-28T04:48:03;6.60;;;3.73;;
38425;SDS011;24210;51.460;6.148;2023-02-28T04:50:28;9.70;;;4.23;;
38425;SDS011;24210;51.460;6.148;2023-02-28T04:52:53;7.07;;;4.03;;
38425;SDS011;24210;51.460;6.148;2023-02-28T04:55:19;9.53;;;3.93;;
38425;SDS011;24210;51.460;6.148;2023-02-28T04:57:44;5.40;;;4.27;;
38425;SDS011;24210;51.460;6.148;2023-02-28T05:00:10;4.63;;;3.57;;
38425;SDS011;24210;51.460;6.148;2023-02-28T05:02:36;5.60;;;4.20;;
38425;SDS011;24210;51.460;6.148;2023-02-28T05:05:02;6.93;;;3.67;;
38425;SDS011;24210;51.460;6.148;2023-02-28T05:07:27;4.93;;;4.20;;
38425;SDS011;24210;51.460;6.148;2023-02-28T05:09:52;6.73;;;4.10;;
38425;SDS011;24210;51.460;6.148;2023-02-28T05:12:18;6.33;;;3.97;;
38425;SDS011;24210;51.460;6.148;2023-02-28T05:14:43;6.13;;;4.10;;
38425;SDS011;24210;51.460;6.148;2023-02-28T05:17:09;6.87;;;4.50;;
38425;SDS011;24210;51.460;6.148;2023-02-28T05:19:35;3.77;;;3.27;;
38425;SDS011;24210;51.460;6.148;2023-02-28T05:22:00;5.57;;;3.53;;
38425;SDS011;24210;51.460;6.148;2023-02-28T05:24:25;6.47;;;3.60;;
38425;SDS011;24210;51.460;6.148;2023-02-28T05:26:51;4.87;;;4.40;;
38425;SDS011;24210;51.460;6.148;2023-02-28T05:31:42;10.03;;;3.83;;
38425;SDS011;24210;51.460;6.148;2023-02-28T05:34:08;5.23;;;4.03;;
38425;SDS011;24210;51.460;6.148;2023-02-28T05:36:36;7.30;;;4.68;;
38425;SDS011;24210;51.460;6.148;2023-02-28T05:39:01;6.53;;;3.50;;
38425;SDS011;24210;51.460;6.148;2023-02-28T05:41:28;5.50;;;3.58;;
38425;SDS011;24210;51.460;6.148;2023-02-28T05:43:53;5.27;;;3.77;;
38425;SDS011;24210;51.460;6.148;2023-02-28T05:46:18;6.80;;;3.90;;
38425;SDS011;24210;51.460;6.148;2023-02-28T05:48:45;6.33;;;4.17;;
38425;SDS011;24210;51.460;6.148;2023-02-28T05:51:11;4.25;;;3.47;;
38425;SDS011;24210;51.460;6.148;2023-02-28T05:53:36;6.63;;;4.00;;
38425;SDS011;24210;51.460;6.148;2023-02-28T05:56:02;4.33;;;3.77;;
38425;SDS011;24210;51.460;6.148;2023-02-28T05:58:28;6.30;;;3.50;;
38425;SDS011;24210;51.460;6.148;2023-02-28T06:00:56;5.28;;;3.85;;
38425;SDS011;24210;51.460;6.148;2023-02-28T06:03:23;4.07;;;3.58;;
38425;SDS011;24210;51.460;6.148;2023-02-28T06:05:48;4.13;;;3.70;;
38425;SDS011;24210;51.460;6.148;2023-02-28T06:08:13;6.33;;;3.37;;
38425;SDS011;24210;51.460;6.148;2023-02-28T06:10:38;7.40;;;3.93;;
38425;SDS011;24210;51.460;6.148;2023-02-28T06:13:03;4.23;;;3.30;;
38425;SDS011;24210;51.460;6.148;2023-02-28T06:15:29;5.60;;;5.00;;
38425;SDS011;24210;51.460;6.148;2023-02-28T06:17:54;4.13;;;3.20;;
38425;SDS011;24210;51.460;6.148;2023-02-28T06:20:21;6.07;;;4.00;;
38425;SDS011;24210;51.460;6.148;2023-02-28T06:22:47;6.93;;;4.60;;
38425;SDS011;24210;51.460;6.148;2023-02-28T06:25:12;5.83;;;3.90;;
38425;SDS011;24210;51.460;6.148;2023-02-28T06:27:37;6.13;;;3.47;;
38425;SDS011;24210;51.460;6.148;2023-02-28T06:30:03;4.30;;;3.87;;
38425;SDS011;24210;51.460;6.148;2023-02-28T06:32:28;7.47;;;3.20;;
38425;SDS011;24210;51.460;6.148;2023-02-28T06:34:53;4.17;;;3.77;;
38425;SDS011;24210;51.460;6.148;2023-02-28T06:37:19;4.77;;;3.93;;
38425;SDS011;24210;51.460;6.148;2023-02-28T06:39:44;5.50;;;3.87;;
38425;SDS011;24210;51.460;6.148;2023-02-28T06:42:09;3.30;;;3.00;;
38425;SDS011;24210;51.460;6.148;2023-02-28T06:44:34;6.77;;;4.70;;
38425;SDS011;24210;51.460;6.148;2023-02-28T06:47:00;5.13;;;3.83;;
38425;SDS011;24210;51.460;6.148;2023-02-28T06:49:25;3.87;;;3.23;;
38425;SDS011;24210;51.460;6.148;2023-02-28T06:51:50;7.00;;;3.60;;
38425;SDS011;24210;51.460;6.148;2023-02-28T06:54:15;6.43;;;3.30;;
38425;SDS011;24210;51.460;6.148;2023-02-28T06:56:41;5.67;;;4.07;;
38425;SDS011;24210;51.460;6.148;2023-02-28T06:59:06;6.27;;;3.50;;
38425;SDS011;24210;51.460;6.148;2023-02-28T07:01:31;5.50;;;3.40;;
38425;SDS011;24210;51.460;6.148;2023-02-28T07:03:58;6.90;;;4.03;;
38425;SDS011;24210;51.460;6.148;2023-02-28T07:06:23;7.63;;;3.40;;
38425;SDS011;24210;51.460;6.148;2023-02-28T07:08:49;5.80;;;3.73;;
38425;SDS011;24210;51.460;6.148;2023-02-28T07:11:15;5.15;;;3.65;;
38425;SDS011;24210;51.460;6.148;2023-02-28T07:13:40;5.37;;;3.40;;
38425;SDS011;24210;51.460;6.148;2023-02-28T07:16:06;5.93;;;4.50;;
38425;SDS011;24210;51.460;6.148;2023-02-28T07:18:33;4.93;;;3.78;;
38425;SDS011;24210;51.460;6.148;2023-02-28T07:21:01;4.33;;;3.93;;
38425;SDS011;24210;51.460;6.148;2023-02-28T07:23:26;7.93;;;3.70;;
38425;SDS011;24210;51.460;6.148;2023-02-28T07:25:51;4.97;;;4.03;;
38425;SDS011;24210;51.460;6.148;2023-02-28T07:28:17;4.27;;;3.30;;
38425;SDS011;24210;51.460;6.148;2023-02-28T07:30:42;4.53;;;2.93;;
38425;SDS011;24210;51.460;6.148;2023-02-28T07:33:07;6.27;;;3.73;;
38425;SDS011;24210;51.460;6.148;2023-02-28T07:35:33;2.97;;;2.63;;
38425;SDS011;24210;51.460;6.148;2023-02-28T07:37:58;3.23;;;2.50;;
38425;SDS011;24210;51.460;6.148;2023-02-28T07:40:24;6.07;;;2.93;;
38425;SDS011;24210;51.460;6.148;2023-02-28T07:42:49;4.70;;;2.63;;
38425;SDS011;24210;51.460;6.148;2023-02-28T07:45:15;5.60;;;3.27;;
38425;SDS011;24210;51.460;6.148;2023-02-28T07:47:40;6.40;;;2.87;;
38425;SDS011;24210;51.460;6.148;2023-02-28T07:50:06;3.35;;;2.78;;
38425;SDS011;24210;51.460;6.148;2023-02-28T07:52:32;2.60;;;2.35;;
38425;SDS011;24210;51.460;6.148;2023-02-28T07:54:58;4.90;;;2.80;;
38425;SDS011;24210;51.460;6.148;2023-02-28T07:57:23;3.30;;;2.40;;
38425;SDS011;24210;51.460;6.148;2023-02-28T07:59:48;3.90;;;1.93;;
38425;SDS011;24210;51.460;6.148;2023-02-28T08:02:14;3.13;;;2.33;;
38425;SDS011;24210;51.460;6.148;2023-02-28T08:04:39;3.85;;;2.80;;
38425;SDS011;24210;51.460;6.148;2023-02-28T08:07:05;5.30;;;2.70;;
38425;SDS011;24210;51.460;6.148;2023-02-28T08:09:30;4.47;;;3.17;;
38425;SDS011;24210;51.460;6.148;2023-02-28T08:11:55;5.07;;;2.80;;
38425;SDS011;24210;51.460;6.148;2023-02-28T08:14:20;4.43;;;2.23;;
38425;SDS011;24210;51.460;6.148;2023-02-28T08:16:45;6.63;;;2.57;;
38425;SDS011;24210;51.460;6.148;2023-02-28T08:19:11;3.30;;;2.90;;
38425;SDS011;24210;51.460;6.148;2023-02-28T08:21:36;6.13;;;2.47;;
38425;SDS011;24210;51.460;6.148;2023-02-28T08:24:01;3.33;;;2.50;;
38425;SDS011;24210;51.460;6.148;2023-02-28T08:26:26;2.63;;;2.40;;
38425;SDS011;24210;51.460;6.148;2023-02-28T08:28:51;7.57;;;2.83;;
38425;SDS011;24210;51.460;6.148;2023-02-28T08:31:17;3.27;;;2.60;;
38425;SDS011;24210;51.460;6.148;2023-02-28T08:33:42;2.87;;;2.37;;
38425;SDS011;24210;51.460;6.148;2023-02-28T08:38:35;3.63;;;2.57;;
38425;SDS011;24210;51.460;6.148;2023-02-28T08:41:01;6.07;;;2.50;;
38425;SDS011;24210;51.460;6.148;2023-02-28T08:43:27;5.47;;;3.25;;
38425;SDS011;24210;51.460;6.148;2023-02-28T08:45:52;5.18;;;2.28;;
38425;SDS011;24210;51.460;6.148;2023-02-28T08:48:18;5.07;;;2.30;;
38425;SDS011;24210;51.460;6.148;2023-02-28T08:50:43;5.50;;;2.80;;
38425;SDS011;24210;51.460;6.148;2023-02-28T08:53:08;5.50;;;3.53;;
38425;SDS011;24210;51.460;6.148;2023-02-28T08:55:33;5.00;;;2.80;;
38425;SDS011;24210;51.460;6.148;2023-02-28T08:57:59;7.83;;;2.87;;
38425;SDS011;24210;51.460;6.148;2023-02-28T09:00:26;3.13;;;2.33;;
38425;SDS011;24210;51.460;6.148;2023-02-28T09:02:51;4.70;;;2.90;;
38425;SDS011;24210;51.460;6.148;2023-02-28T09:05:16;4.57;;;2.80;;
38425;SDS011;24210;51.460;6.148;2023-02-28T09:07:41;3.57;;;2.30;;
38425;SDS011;24210;51.460;6.148;2023-02-28T09:10:07;4.73;;;2.97;;
38425;SDS011;24210;51.460;6.148;2023-02-28T09:12:33;2.50;;;2.30;;
38425;SDS011;24210;51.460;6.148;2023-02-28T09:17:24;3.75;;;2.70;;
38425;SDS011;24210;51.460;6.148;2023-02-28T09:19:49;5.23;;;2.17;;
38425;SDS011;24210;51.460;6.148;2023-02-28T09:22:15;3.20;;;2.37;;
38425;SDS011;24210;51.460;6.148;2023-02-28T09:24:40;6.70;;;2.40;;
38425;SDS011;24210;51.460;6.148;2023-02-28T09:27:06;4.93;;;1.97;;
38425;SDS011;24210;51.460;6.148;2023-02-28T09:29:32;2.03;;;1.93;;
38425;SDS011;24210;51.460;6.148;2023-02-28T09:31:57;4.68;;;2.15;;
38425;SDS011;24210;51.460;6.148;2023-02-28T09:34:23;4.10;;;1.80;;
38425;SDS011;24210;51.460;6.148;2023-02-28T09:36:49;3.33;;;1.73;;
38425;SDS011;24210;51.460;6.148;2023-02-28T09:39:15;2.00;;;1.80;;
38425;SDS011;24210;51.460;6.148;2023-02-28T09:41:42;1.33;;;1.20;;
38425;SDS011;24210;51.460;6.148;2023-02-28T09:44:33;5.18;;;3.17;;
38425;SDS011;24210;51.460;6.148;2023-02-28T09:47:14;2.80;;;1.58;;
38425;SDS011;24210;51.460;6.148;2023-02-28T09:49:45;5.55;;;2.60;;
38425;SDS011;24210;51.460;6.148;2023-02-28T09:52:15;3.33;;;2.47;;
38425;SDS011;24210;51.460;6.148;2023-02-28T09:54:41;2.25;;;1.92;;
38425;SDS011;24210;51.460;6.148;2023-02-28T10:02:10;2.92;;;1.30;;
38425;SDS011;24210;51.460;6.148;2023-02-28T10:04:50;1.23;;;0.88;;
38425;SDS011;24210;51.460;6.148;2023-02-28T10:12:08;1.20;;;1.02;;
38425;SDS011;24210;51.460;6.148;2023-02-28T10:14:34;2.63;;;1.67;;
38425;SDS011;24210;51.460;6.148;2023-02-28T10:17:19;1.70;;;1.43;;
38425;SDS011;24210;51.460;6.148;2023-02-28T10:22:15;3.38;;;2.00;;
38425;SDS011;24210;51.460;6.148;2023-02-28T10:24:43;3.65;;;1.70;;
38425;SDS011;24210;51.460;6.148;2023-02-28T10:27:22;3.35;;;2.40;;
38425;SDS011;24210;51.460;6.148;2023-02-28T10:29:51;5.70;;;1.60;;
38425;SDS011;24210;51.460;6.148;2023-02-28T10:32:18;4.45;;;1.27;;
38425;SDS011;24210;51.460;6.148;2023-02-28T10:34:43;1.98;;;1.33;;
38425;SDS011;24210;51.460;6.148;2023-02-28T10:37:09;3.27;;;1.57;;
38425;SDS011;24210;51.460;6.148;2023-02-28T10:42:03;1.95;;;1.50;;
38425;SDS011;24210;51.460;6.148;2023-02-28T10:44:29;1.60;;;1.50;;
38425;SDS011;24210;51.460;6.148;2023-02-28T10:46:54;1.43;;;1.33;;
38425;SDS011;24210;51.460;6.148;2023-02-28T10:49:21;5.23;;;2.07;;
38425;SDS011;24210;51.460;6.148;2023-02-28T10:51:46;1.30;;;1.17;;
38425;SDS011;24210;51.460;6.148;2023-02-28T10:59:32;5.10;;;2.53;;
38425;SDS011;24210;51.460;6.148;2023-02-28T11:01:57;3.70;;;2.20;;
38425;SDS011;24210;51.460;6.148;2023-02-28T11:06:48;3.03;;;2.07;;
38425;SDS011;24210;51.460;6.148;2023-02-28T11:09:38;0.95;;;0.47;;
38425;SDS011;24210;51.460;6.148;2023-02-28T11:12:04;3.55;;;1.80;;
38425;SDS011;24210;51.460;6.148;2023-02-28T11:14:32;1.92;;;1.08;;
38425;SDS011;24210;51.460;6.148;2023-02-28T11:17:21;1.33;;;1.00;;
38425;SDS011;24210;51.460;6.148;2023-02-28T11:19:46;2.90;;;1.90;;
38425;SDS011;24210;51.460;6.148;2023-02-28T11:22:15;2.92;;;1.35;;
38425;SDS011;24210;51.460;6.148;2023-02-28T11:24:43;2.08;;;1.60;;
38425;SDS011;24210;51.460;6.148;2023-02-28T11:29:53;1.73;;;1.60;;
38425;SDS011;24210;51.460;6.148;2023-02-28T11:32:22;0.80;;;0.80;;
38425;SDS011;24210;51.460;6.148;2023-02-28T11:35:33;1.52;;;1.40;;
38425;SDS011;24210;51.460;6.148;2023-02-28T11:37:33;2.70;;;1.00;;
38425;SDS011;24210;51.460;6.148;2023-02-28T11:39:58;2.33;;;1.77;;
38425;SDS011;24210;51.460;6.148;2023-02-28T11:42:28;2.27;;;1.40;;
38425;SDS011;24210;51.460;6.148;2023-02-28T11:47:45;4.40;;;2.58;;
38425;SDS011;24210;51.460;6.148;2023-02-28T11:52:45;2.77;;;1.37;;
38425;SDS011;24210;51.460;6.148;2023-02-28T11:55:17;2.03;;;1.83;;
38425;SDS011;24210;51.460;6.148;2023-02-28T12:05:34;3.22;;;1.60;;
38425;SDS011;24210;51.460;6.148;2023-02-28T12:08:20;2.63;;;2.17;;
38425;SDS011;24210;51.460;6.148;2023-02-28T12:13:21;3.23;;;2.27;;
38425;SDS011;24210;51.460;6.148;2023-02-28T12:18:27;3.63;;;2.63;;
38425;SDS011;24210;51.460;6.148;2023-02-28T12:28:48;2.67;;;2.20;;
38425;SDS011;24210;51.460;6.148;2023-02-28T12:31:18;2.80;;;2.42;;
38425;SDS011;24210;51.460;6.148;2023-02-28T12:33:55;1.88;;;1.73;;
38425;SDS011;24210;51.460;6.148;2023-02-28T12:36:21;4.38;;;2.10;;
38425;SDS011;24210;51.460;6.148;2023-02-28T12:38:50;2.22;;;2.03;;
38425;SDS011;24210;51.460;6.148;2023-02-28T12:43:55;3.00;;;2.40;;
38425;SDS011;24210;51.460;6.148;2023-02-28T12:46:23;4.38;;;2.53;;
38425;SDS011;24210;51.460;6.148;2023-02-28T12:51:15;3.90;;;2.72;;
38425;SDS011;24210;51.460;6.148;2023-02-28T12:58:48;4.23;;;2.43;;
38425;SDS011;24210;51.460;6.148;2023-02-28T13:09:36;1.98;;;1.33;;
38425;SDS011;24210;51.460;6.148;2023-02-28T13:12:04;2.65;;;2.38;;
38425;SDS011;24210;51.460;6.148;2023-02-28T13:14:37;2.67;;;1.95;;
38425;SDS011;24210;51.460;6.148;2023-02-28T13:22:18;1.55;;;1.10;;
38425;SDS011;24210;51.460;6.148;2023-02-28T13:24:48;1.88;;;1.77;;
38425;SDS011;24210;51.460;6.148;2023-02-28T13:29:40;1.57;;;1.47;;
38425;SDS011;24210;51.460;6.148;2023-02-28T13:34:36;3.47;;;2.90;;
38425;SDS011;24210;51.460;6.148;2023-02-28T13:47:30;3.75;;;2.03;;
38425;SDS011;24210;51.460;6.148;2023-02-28T13:50:40;3.75;;;2.47;;
38425;SDS011;24210;51.460;6.148;2023-02-28T13:55:43;1.70;;;1.60;;
38425;SDS011;24210;51.460;6.148;2023-02-28T14:04:02;1.83;;;1.73;;
38425;SDS011;24210;51.460;6.148;2023-02-28T14:06:32;2.28;;;1.80;;
38425;SDS011;24210;51.460;6.148;2023-02-28T14:09:00;0.90;;;0.88;;
38425;SDS011;24210;51.460;6.148;2023-02-28T14:11:33;1.38;;;0.88;;
38425;SDS011;24210;51.460;6.148;2023-02-28T14:13:59;3.75;;;1.30;;
38425;SDS011;24210;51.460;6.148;2023-02-28T14:17:07;1.33;;;1.23;;
38425;SDS011;24210;51.460;6.148;2023-02-28T14:19:22;1.80;;;1.70;;
38425;SDS011;24210;51.460;6.148;2023-02-28T14:21:58;2.40;;;1.80;;
38425;SDS011;24210;51.460;6.148;2023-02-28T14:26:56;2.80;;;1.65;;
38425;SDS011;24210;51.460;6.148;2023-02-28T14:34:55;2.38;;;2.00;;
38425;SDS011;24210;51.460;6.148;2023-02-28T14:37:27;3.65;;;2.58;;
38425;SDS011;24210;51.460;6.148;2023-02-28T14:39:53;2.55;;;1.85;;
38425;SDS011;24210;51.460;6.148;2023-02-28T14:42:31;2.60;;;2.40;;
38425;SDS011;24210;51.460;6.148;2023-02-28T14:44:57;1.70;;;1.55;;
38425;SDS011;24210;51.460;6.148;2023-02-28T14:47:23;1.17;;;1.10;;
38425;SDS011;24210;51.460;6.148;2023-02-28T14:49:50;2.85;;;1.50;;
38425;SDS011;24210;51.460;6.148;2023-02-28T14:52:23;2.63;;;1.70;;
38425;SDS011;24210;51.460;6.148;2023-02-28T14:54:58;4.20;;;1.60;;
38425;SDS011;24210;51.460;6.148;2023-02-28T14:59:59;2.30;;;2.10;;
38425;SDS011;24210;51.460;6.148;2023-02-28T15:02:26;2.55;;;1.70;;
38425;SDS011;24210;51.460;6.148;2023-02-28T15:05:02;2.78;;;2.58;;
38425;SDS011;24210;51.460;6.148;2023-02-28T15:07:35;2.10;;;2.00;;
38425;SDS011;24210;51.460;6.148;2023-02-28T15:10:33;2.03;;;1.80;;
38425;SDS011;24210;51.460;6.148;2023-02-28T15:12:52;2.22;;;2.03;;
38425;SDS011;24210;51.460;6.148;2023-02-28T15:15:18;3.45;;;2.05;;
38425;SDS011;24210;51.460;6.148;2023-02-28T15:17:46;2.75;;;1.10;;
38425;SDS011;24210;51.460;6.148;2023-02-28T15:20:12;2.35;;;1.98;;
38425;SDS011;24210;51.460;6.148;2023-02-28T15:22:38;2.83;;;1.50;;
38425;SDS011;24210;51.460;6.148;2023-02-28T15:25:04;1.27;;;1.17;;
38425;SDS011;24210;51.460;6.148;2023-02-28T15:29:58;1.75;;;1.50;;
38425;SDS011;24210;51.460;6.148;2023-02-28T15:34:48;3.58;;;2.33;;
38425;SDS011;24210;51.460;6.148;2023-02-28T15:39:52;1.60;;;1.50;;
38425;SDS011;24210;51.460;6.148;2023-02-28T15:42:19;3.40;;;1.80;;
38425;SDS011;24210;51.460;6.148;2023-02-28T15:47:16;1.70;;;1.60;;
38425;SDS011;24210;51.460;6.148;2023-02-28T15:49:47;2.08;;;1.85;;
38425;SDS011;24210;51.460;6.148;2023-02-28T15:52:16;1.90;;;1.80;;
38425;SDS011;24210;51.460;6.148;2023-02-28T15:54:42;2.03;;;1.48;;
38425;SDS011;24210;51.460;6.148;2023-02-28T15:57:12;1.17;;;1.02;;
38425;SDS011;24210;51.460;6.148;2023-02-28T15:59:38;3.33;;;2.13;;
38425;SDS011;24210;51.460;6.148;2023-02-28T16:04:29;2.20;;;2.10;;
38425;SDS011;24210;51.460;6.148;2023-02-28T16:09:24;1.73;;;1.55;;
38425;SDS011;24210;51.460;6.148;2023-02-28T16:11:52;1.40;;;1.30;;
38425;SDS011;24210;51.460;6.148;2023-02-28T16:14:19;1.60;;;1.40;;
38425;SDS011;24210;51.460;6.148;2023-02-28T16:16:46;1.67;;;1.58;;
38425;SDS011;24210;51.460;6.148;2023-02-28T16:19:11;1.98;;;1.55;;
38425;SDS011;24210;51.460;6.148;2023-02-28T16:21:36;2.60;;;2.40;;
38425;SDS011;24210;51.460;6.148;2023-02-28T16:24:02;1.60;;;1.50;;
38425;SDS011;24210;51.460;6.148;2023-02-28T16:26:27;2.07;;;1.67;;
38425;SDS011;24210;51.460;6.148;2023-02-28T16:28:53;2.67;;;1.50;;
38425;SDS011;24210;51.460;6.148;2023-02-28T16:31:19;2.33;;;1.90;;
38425;SDS011;24210;51.460;6.148;2023-02-28T16:33:45;3.13;;;1.80;;
38425;SDS011;24210;51.460;6.148;2023-02-28T16:36:14;2.00;;;1.77;;
38425;SDS011;24210;51.460;6.148;2023-02-28T16:38:40;2.88;;;1.70;;
38425;SDS011;24210;51.460;6.148;2023-02-28T16:41:05;4.57;;;1.40;;
38425;SDS011;24210;51.460;6.148;2023-02-28T16:43:30;1.87;;;1.40;;
38425;SDS011;24210;51.460;6.148;2023-02-28T16:45:56;1.73;;;1.63;;
38425;SDS011;24210;51.460;6.148;2023-02-28T16:48:23;1.88;;;1.40;;
38425;SDS011;24210;51.460;6.148;2023-02-28T16:50:48;2.00;;;1.60;;
38425;SDS011;24210;51.460;6.148;2023-02-28T16:53:13;2.67;;;2.23;;
38425;SDS011;24210;51.460;6.148;2023-02-28T16:55:38;2.27;;;1.90;;
38425;SDS011;24210;51.460;6.148;2023-02-28T16:58:04;2.17;;;2.03;;
38425;SDS011;24210;51.460;6.148;2023-02-28T17:00:29;3.57;;;2.10;;
38425;SDS011;24210;51.460;6.148;2023-02-28T17:05:21;2.23;;;1.83;;
38425;SDS011;24210;51.460;6.148;2023-02-28T17:07:47;4.27;;;2.27;;
38425;SDS011;24210;51.460;6.148;2023-02-28T17:10:16;4.20;;;2.43;;
38425;SDS011;24210;51.460;6.148;2023-02-28T17:12:42;3.90;;;2.35;;
38425;SDS011;24210;51.460;6.148;2023-02-28T17:15:08;2.70;;;2.50;;
38425;SDS011;24210;51.460;6.148;2023-02-28T17:17:34;7.18;;;2.90;;
38425;SDS011;24210;51.460;6.148;2023-02-28T17:19:59;4.27;;;3.00;;
38425;SDS011;24210;51.460;6.148;2023-02-28T17:22:24;4.57;;;3.00;;
38425;SDS011;24210;51.460;6.148;2023-02-28T17:24:51;5.85;;;2.80;;
38425;SDS011;24210;51.460;6.148;2023-02-28T17:27:16;3.10;;;2.30;;
38425;SDS011;24210;51.460;6.148;2023-02-28T17:29:41;6.47;;;2.83;;
38425;SDS011;24210;51.460;6.148;2023-02-28T17:32:06;2.77;;;2.57;;
38425;SDS011;24210;51.460;6.148;2023-02-28T17:34:31;2.87;;;2.53;;
38425;SDS011;24210;51.460;6.148;2023-02-28T17:36:57;2.73;;;2.33;;
38425;SDS011;24210;51.460;6.148;2023-02-28T17:39:22;5.03;;;3.63;;
38425;SDS011;24210;51.460;6.148;2023-02-28T17:41:54;3.25;;;2.83;;